Time;durP1;ratioP1;P1;durP2;ratioP2;P2;SDS_P1;SDS_P2;PMS_P1;PMS_P2;Temp;Humidity;BMP_temperature;BMP_pressure;BME280_temperature;BME280_humidity;BME280_pressure;Samples;Min_cycle;Max_cycle;Signal;HPM_P1;HPM_P2
2021/04/08 00:01:47;;;;;;;1.15;0.63;;;23.10;25.10;;;;;;5043526;28;20029;-52
2021/04/08 00:04:13;;;;;;;1.95;0.63;;;23.10;25.00;;;;;;5024179;28;20033;-54
2021/04/08 00:06:38;;;;;;;1.73;0.50;;;23.10;25.00;;;;;;5037096;28;20048;-53
2021/04/08 00:09:04;;;;;;;1.30;0.50;;;23.10;25.00;;;;;;5045202;28;20029;-50
2021/04/08 00:11:30;;;;;;;0.90;0.40;;;23.10;25.00;;;;;;5039677;28;20037;-54
2021/04/08 00:13:56;;;;;;;1.13;0.57;;;23.10;25.00;;;;;;5042996;28;20033;-49
2021/04/08 00:16:22;;;;;;;1.55;0.70;;;23.10;25.10;;;;;;5042966;28;20274;-53
2021/04/08 00:18:47;;;;;;;0.88;0.43;;;23.10;25.10;;;;;;5042774;28;20017;-54
2021/04/08 00:21:13;;;;;;;1.50;0.50;;;23.00;25.00;;;;;;5040385;28;20389;-52
2021/04/08 00:23:39;;;;;;;1.38;0.52;;;23.00;25.00;;;;;;5040069;28;20032;-51
2021/04/08 00:26:05;;;;;;;1.35;0.55;;;23.00;25.00;;;;;;5042833;28;20448;-50
2021/04/08 00:28:31;;;;;;;0.80;0.40;;;23.00;25.00;;;;;;5044505;28;20017;-49
2021/04/08 00:30:57;;;;;;;0.73;0.40;;;23.00;25.10;;;;;;5044982;28;20040;-50
2021/04/08 00:33:22;;;;;;;1.10;0.50;;;23.00;25.10;;;;;;5043334;28;20039;-55
2021/04/08 00:35:48;;;;;;;0.70;0.43;;;23.00;25.10;;;;;;5045748;28;20456;-51
2021/04/08 00:38:14;;;;;;;1.25;0.57;;;23.00;25.10;;;;;;5040544;28;20057;-52
2021/04/08 00:40:41;;;;;;;1.15;0.40;;;23.00;25.10;;;;;;5021853;28;20123;-56
2021/04/08 00:43:06;;;;;;;2.00;0.52;;;23.00;25.10;;;;;;5044745;28;20120;-52
2021/04/08 00:45:33;;;;;;;0.82;0.35;;;22.90;25.00;;;;;;5039397;28;20105;-52
2021/04/08 00:47:58;;;;;;;1.85;0.50;;;22.90;25.10;;;;;;5044587;28;20099;-48
2021/04/08 00:50:25;;;;;;;1.25;0.50;;;22.90;25.10;;;;;;5044861;28;20037;-50
2021/04/08 00:53:08;;;;;;;1.52;0.60;;;22.90;25.10;;;;;;5020867;28;20097;-55
2021/04/08 00:55:41;;;;;;;1.10;0.40;;;22.90;25.10;;;;;;5046646;28;20080;-51
2021/04/08 00:58:07;;;;;;;1.45;0.70;;;22.90;25.10;;;;;;5039826;28;20044;-53
2021/04/08 01:00:35;;;;;;;0.88;0.50;;;22.90;25.10;;;;;;5036296;28;20172;-56
2021/04/08 01:03:01;;;;;;;2.08;0.60;;;22.90;25.10;;;;;;5037009;28;20095;-52
2021/04/08 01:05:28;;;;;;;2.20;0.50;;;22.90;25.10;;;;;;5045404;28;20036;-53
2021/04/08 01:07:54;;;;;;;1.05;0.40;;;22.80;25.10;;;;;;5041272;28;20029;-53
2021/04/08 01:10:23;;;;;;;0.68;0.30;;;22.90;25.20;;;;;;5042282;28;20425;-49
2021/04/08 01:12:58;;;;;;;1.23;0.50;;;22.80;25.10;;;;;;5036017;28;20441;-52
2021/04/08 01:15:24;;;;;;;0.98;0.50;;;22.80;25.10;;;;;;5043472;28;20025;-50
2021/04/08 01:18:10;;;;;;;1.30;0.43;;;22.80;25.20;;;;;;5041928;28;20026;-51
2021/04/08 01:20:54;;;;;;;1.17;0.43;;;22.80;25.20;;;;;;5040463;28;20029;-52
2021/04/08 01:23:48;;;;;;;2.88;0.43;;;22.80;25.20;;;;;;5025722;28;20061;-51
2021/04/08 01:26:50;;;;;;;2.22;0.70;;;22.80;25.20;;;;;;5040980;28;20057;-53
2021/04/08 01:29:39;;;;;;;0.95;0.43;;;22.80;25.20;;;;;;5038461;28;20345;-54
2021/04/08 01:32:07;;;;;;;1.60;0.50;;;22.80;25.20;;;;;;5038308;28;20344;-54
2021/04/08 01:34:38;;;;;;;0.98;0.40;;;22.80;25.20;;;;;;5037418;28;20037;-49
2021/04/08 01:37:08;;;;;;;0.73;0.30;;;22.70;25.20;;;;;;5041195;28;20037;-53
2021/04/08 01:39:37;;;;;;;0.65;0.40;;;22.70;25.20;;;;;;5042552;28;20025;-53
2021/04/08 01:42:04;;;;;;;0.55;0.32;;;22.70;25.20;;;;;;5039757;28;20471;-51
2021/04/08 01:44:31;;;;;;;1.13;0.40;;;22.70;25.20;;;;;;5024818;28;20041;-51
2021/04/08 01:47:01;;;;;;;4.28;0.50;;;22.70;25.20;;;;;;5039850;28;20528;-53
2021/04/08 01:49:30;;;;;;;1.20;0.50;;;22.70;25.30;;;;;;5040206;28;20028;-51
2021/04/08 01:51:57;;;;;;;1.50;0.60;;;22.70;25.30;;;;;;5036206;28;20072;-54
2021/04/08 01:54:34;;;;;;;1.60;0.50;;;22.70;25.30;;;;;;5041539;28;20527;-50
2021/04/08 01:57:05;;;;;;;0.95;0.40;;;22.70;25.30;;;;;;5040115;28;20068;-48
2021/04/08 01:59:32;;;;;;;0.65;0.40;;;22.70;25.30;;;;;;5038718;28;20078;-49
2021/04/08 02:01:59;;;;;;;0.93;0.40;;;22.70;25.30;;;;;;5036122;28;20384;-50
2021/04/08 02:04:28;;;;;;;0.75;0.20;;;22.60;25.30;;;;;;5039850;28;20086;-51
2021/04/08 02:06:54;;;;;;;1.13;0.50;;;22.60;25.30;;;;;;5021228;28;20519;-52
2021/04/08 02:09:22;;;;;;;0.95;0.50;;;22.60;25.30;;;;;;5042594;28;20324;-49
2021/04/08 02:11:49;;;;;;;1.10;0.50;;;22.60;25.30;;;;;;5045380;28;20132;-48
2021/04/08 02:14:16;;;;;;;1.17;0.60;;;22.60;25.30;;;;;;5038756;28;20055;-53
2021/04/08 02:16:46;;;;;;;1.00;0.47;;;22.60;25.30;;;;;;5042007;28;20104;-49
2021/04/08 02:19:13;;;;;;;0.85;0.40;;;22.60;25.30;;;;;;5041994;28;20033;-51
2021/04/08 02:21:44;;;;;;;1.05;0.50;;;22.60;25.30;;;;;;5047260;28;20417;-49
2021/04/08 02:24:11;;;;;;;0.73;0.32;;;22.60;25.30;;;;;;5047901;28;20041;-52
2021/04/08 02:26:42;;;;;;;0.65;0.40;;;22.60;25.30;;;;;;5043899;28;20037;-49
2021/04/08 02:29:09;;;;;;;1.23;0.60;;;22.60;25.30;;;;;;5043651;28;20033;-50
2021/04/08 02:31:37;;;;;;;0.80;0.40;;;22.60;25.30;;;;;;5045269;28;20053;-54
2021/04/08 02:34:04;;;;;;;1.10;0.43;;;22.60;25.30;;;;;;5045955;28;20357;-51
2021/04/08 02:36:30;;;;;;;0.85;0.40;;;22.50;25.30;;;;;;5045644;28;20032;-47
2021/04/08 02:38:56;;;;;;;1.02;0.40;;;22.50;25.30;;;;;;5039674;28;20025;-56
2021/04/08 02:41:22;;;;;;;0.93;0.38;;;22.50;25.30;;;;;;5025612;28;20327;-51
2021/04/08 02:43:48;;;;;;;0.35;0.30;;;22.50;25.30;;;;;;5045321;28;20340;-51
2021/04/08 02:46:14;;;;;;;0.68;0.40;;;22.50;25.30;;;;;;5045523;28;20045;-49
2021/04/08 02:48:39;;;;;;;0.73;0.30;;;22.50;25.30;;;;;;5045006;28;20486;-48
2021/04/08 02:51:11;;;;;;;0.88;0.40;;;22.50;25.30;;;;;;5044665;28;20364;-49
2021/04/08 02:53:52;;;;;;;0.80;0.28;;;22.50;25.30;;;;;;5042204;28;20043;-54
2021/04/08 02:56:40;;;;;;;1.80;0.30;;;22.50;25.30;;;;;;5043046;28;20453;-55
2021/04/08 02:59:22;;;;;;;1.35;0.30;;;22.50;25.30;;;;;;5043980;28;20453;-49
2021/04/08 03:01:55;;;;;;;1.45;0.40;;;22.50;25.30;;;;;;5041814;28;20044;-56
2021/04/08 03:04:22;;;;;;;0.80;0.30;;;22.40;25.20;;;;;;5041107;28;20040;-52
2021/04/08 03:06:50;;;;;;;1.50;0.40;;;22.50;25.30;;;;;;5048591;28;20076;-56
2021/04/08 03:09:35;;;;;;;0.82;0.40;;;22.50;25.30;;;;;;5042331;28;20024;-55
2021/04/08 03:12:01;;;;;;;;;;;22.40;25.30;;;;;;5041434;28;20029;-52
2021/04/08 03:14:28;;;;;;;0.60;0.30;;;22.40;25.30;;;;;;5045589;28;19919;-53
2021/04/08 03:16:57;;;;;;;0.55;0.30;;;22.40;25.30;;;;;;5041493;28;20769;-54
2021/04/08 03:19:25;;;;;;;1.58;0.22;;;22.40;25.30;;;;;;5028760;28;20093;-54
2021/04/08 03:21:52;;;;;;;0.90;0.20;;;22.40;25.30;;;;;;5040155;28;20071;-47
2021/04/08 03:24:20;;;;;;;1.05;0.40;;;22.40;25.30;;;;;;5043428;28;20129;-53
2021/04/08 03:26:47;;;;;;;0.38;0.17;;;22.40;25.30;;;;;;5038101;28;20048;-51
2021/04/08 03:29:14;;;;;;;0.88;0.22;;;22.40;25.40;;;;;;5044971;28;20024;-50
2021/04/08 03:31:44;;;;;;;1.00;0.30;;;22.40;25.40;;;;;;5041702;28;20079;-55
2021/04/08 03:34:11;;;;;;;0.82;0.30;;;22.40;25.40;;;;;;5043524;28;20028;-50
2021/04/08 03:36:38;;;;;;;0.88;0.20;;;22.30;25.40;;;;;;5025457;28;20439;-52
2021/04/08 03:39:08;;;;;;;0.63;0.22;;;22.30;25.40;;;;;;5023705;28;20326;-54
2021/04/08 03:41:42;;;;;;;0.75;0.40;;;22.30;25.40;;;;;;5042219;28;20022;-50
2021/04/08 03:44:11;;;;;;;1.02;0.38;;;22.30;25.40;;;;;;5042019;28;20024;-49
2021/04/08 03:46:38;;;;;;;1.55;0.40;;;22.40;25.50;;;;;;5045433;28;20041;-50
2021/04/08 03:49:09;;;;;;;0.70;0.38;;;22.30;25.40;;;;;;5044115;28;20041;-54
2021/04/08 03:51:37;;;;;;;0.68;0.20;;;22.30;25.40;;;;;;5040949;28;20454;-48
2021/04/08 03:54:14;;;;;;;0.85;0.30;;;22.30;25.50;;;;;;5023014;28;20449;-52
2021/04/08 03:56:43;;;;;;;0.28;0.20;;;22.30;25.50;;;;;;5027727;28;20070;-51
2021/04/08 03:59:11;;;;;;;1.50;0.50;;;22.30;25.50;;;;;;5042520;28;20048;-49
2021/04/08 04:01:38;;;;;;;0.70;0.40;;;22.30;25.50;;;;;;5042135;28;20032;-51
2021/04/08 04:04:05;;;;;;;1.17;0.40;;;22.30;25.50;;;;;;5042593;28;20063;-52
2021/04/08 04:06:35;;;;;;;1.33;0.40;;;22.30;25.50;;;;;;5043567;28;20041;-49
2021/04/08 04:09:02;;;;;;;0.85;0.30;;;22.30;25.50;;;;;;5041003;28;20029;-50
2021/04/08 04:11:31;;;;;;;0.45;0.30;;;22.20;26.00;;;;;;5037102;28;20029;-49
2021/04/08 04:13:58;;;;;;;0.68;0.30;;;22.20;25.50;;;;;;5025800;28;20033;-49
2021/04/08 04:16:25;;;;;;;1.27;0.60;;;22.20;25.50;;;;;;5040544;28;20467;-50
2021/04/08 04:18:50;;;;;;;0.60;0.40;;;22.20;25.50;;;;;;5040284;28;20026;-53
2021/04/08 04:21:16;;;;;;;0.63;0.30;;;22.30;25.60;;;;;;5046693;28;20445;-48
2021/04/08 04:23:43;;;;;;;0.70;0.30;;;22.20;25.50;;;;;;5045733;28;20115;-51
2021/04/08 04:26:08;;;;;;;0.55;0.25;;;22.20;25.50;;;;;;5043330;28;20021;-47
2021/04/08 04:28:34;;;;;;;0.70;0.30;;;22.20;25.50;;;;;;5037103;28;20306;-52
2021/04/08 04:31:00;;;;;;;1.00;0.20;;;22.20;25.50;;;;;;5042916;28;20447;-48
2021/04/08 04:33:25;;;;;;;0.50;0.30;;;22.20;25.50;;;;;;5041851;28;20056;-49
2021/04/08 04:35:55;;;;;;;0.95;0.20;;;22.20;25.50;;;;;;5027051;28;20117;-50
2021/04/08 04:38:20;;;;;;;0.77;0.30;;;22.20;25.60;;;;;;5037643;28;20064;-51
2021/04/08 04:40:46;;;;;;;0.68;0.30;;;22.20;25.60;;;;;;5042383;28;20028;-54
2021/04/08 04:43:12;;;;;;;1.27;0.35;;;22.20;25.50;;;;;;5024531;28;20041;-46
2021/04/08 04:45:37;;;;;;;0.75;0.30;;;22.20;25.60;;;;;;5043290;28;20423;-52
2021/04/08 04:48:03;;;;;;;0.43;0.22;;;22.20;25.60;;;;;;5040344;28;20052;-50
2021/04/08 04:50:29;;;;;;;0.63;0.30;;;22.10;25.50;;;;;;5042326;28;20109;-53
2021/04/08 04:52:55;;;;;;;0.77;0.30;;;22.20;25.60;;;;;;5044881;28;20105;-52
2021/04/08 04:55:21;;;;;;;0.68;0.35;;;22.20;25.60;;;;;;5041683;28;20354;-49
2021/04/08 04:57:46;;;;;;;0.70;0.38;;;22.20;25.60;;;;;;5022663;28;20065;-52
2021/04/08 05:00:12;;;;;;;0.98;0.40;;;22.10;25.60;;;;;;5042713;28;20029;-52
2021/04/08 05:02:38;;;;;;;1.25;0.32;;;22.10;25.60;;;;;;5045103;28;20028;-48
2021/04/08 05:05:05;;;;;;;1.88;0.45;;;22.20;26.10;;;;;;5043291;28;20368;-48
2021/04/08 05:07:30;;;;;;;1.48;0.50;;;22.10;25.60;;;;;;5038150;28;20040;-53
2021/04/08 05:09:56;;;;;;;0.50;0.30;;;22.10;25.60;;;;;;5022030;28;20071;-49
2021/04/08 05:12:22;;;;;;;0.50;0.30;;;22.10;25.60;;;;;;5040101;28;20116;-48
2021/04/08 05:14:49;;;;;;;1.17;0.30;;;22.10;25.60;;;;;;5039049;28;20064;-51
2021/04/08 05:17:15;;;;;;;0.20;0.13;;;22.10;25.60;;;;;;5041088;28;20025;-50
2021/04/08 05:19:41;;;;;;;1.15;0.40;;;22.10;25.60;;;;;;5040116;28;20445;-56
2021/04/08 05:22:06;;;;;;;0.43;0.30;;;22.10;25.60;;;;;;5042173;28;20025;-51
2021/04/08 05:24:32;;;;;;;1.25;0.40;;;22.00;25.60;;;;;;5042816;28;20021;-50
2021/04/08 05:26:58;;;;;;;1.20;0.32;;;22.10;25.70;;;;;;5042682;28;20372;-53
2021/04/08 05:29:23;;;;;;;0.45;0.20;;;22.00;25.60;;;;;;5039137;28;20025;-48
2021/04/08 05:31:49;;;;;;;0.63;0.30;;;22.00;25.60;;;;;;5042049;28;20024;-52
2021/04/08 05:34:15;;;;;;;1.05;0.38;;;22.00;25.70;;;;;;5039970;28;20125;-49
2021/04/08 05:36:40;;;;;;;1.00;0.30;;;22.00;25.70;;;;;;5042754;28;20463;-52
2021/04/08 05:39:06;;;;;;;0.77;0.30;;;22.00;25.70;;;;;;5041479;28;20036;-50
2021/04/08 05:41:32;;;;;;;0.73;0.32;;;22.00;25.70;;;;;;5043346;28;20572;-53
2021/04/08 05:43:58;;;;;;;1.27;0.65;;;22.00;25.70;;;;;;5041971;28;20029;-52
2021/04/08 05:46:24;;;;;;;1.63;0.50;;;22.00;25.70;;;;;;5044466;28;20048;-48
2021/04/08 05:48:49;;;;;;;2.25;0.60;;;22.00;25.70;;;;;;5035848;28;20571;-48
2021/04/08 05:51:15;;;;;;;0.80;0.30;;;22.00;25.70;;;;;;5037465;28;20116;-49
2021/04/08 05:53:41;;;;;;;0.65;0.43;;;22.00;25.70;;;;;;5036475;28;20033;-53
2021/04/08 05:56:06;;;;;;;0.60;0.20;;;22.00;25.80;;;;;;5045004;28;20122;-51
2021/04/08 05:58:32;;;;;;;0.80;0.38;;;22.00;25.80;;;;;;5046493;28;20367;-49
2021/04/08 06:00:58;;;;;;;0.70;0.30;;;22.00;25.80;;;;;;5041700;28;20038;-51
2021/04/08 06:03:24;;;;;;;1.05;0.30;;;22.00;25.80;;;;;;5026375;28;20061;-49
2021/04/08 06:05:50;;;;;;;0.30;0.20;;;22.00;25.80;;;;;;5038448;28;20041;-48
2021/04/08 06:08:16;;;;;;;1.13;0.50;;;22.00;25.80;;;;;;5049885;28;20033;-48
2021/04/08 06:10:41;;;;;;;0.60;0.20;;;22.00;25.80;;;;;;5046313;28;20025;-51
2021/04/08 06:13:07;;;;;;;1.33;0.60;;;22.00;25.80;;;;;;5048501;28;20360;-56
2021/04/08 06:15:33;;;;;;;1.77;0.57;;;22.00;25.80;;;;;;5023558;28;20119;-50
2021/04/08 06:17:59;;;;;;;0.98;0.45;;;22.00;25.80;;;;;;5042861;28;20047;-50
2021/04/08 06:20:24;;;;;;;1.55;0.50;;;22.00;25.90;;;;;;5028102;28;20029;-50
2021/04/08 06:22:52;;;;;;;1.23;0.40;;;22.00;25.90;;;;;;5048694;28;20108;-52
2021/04/08 06:25:18;;;;;;;1.15;0.50;;;21.90;25.80;;;;;;5044547;28;20402;-53
2021/04/08 06:27:44;;;;;;;0.90;0.45;;;22.00;25.90;;;;;;5030386;28;20119;-53
2021/04/08 06:30:11;;;;;;;0.80;0.40;;;22.00;25.90;;;;;;5042202;28;20109;-53
2021/04/08 06:32:37;;;;;;;0.70;0.38;;;21.90;26.40;;;;;;5042463;28;20117;-51
2021/04/08 06:35:03;;;;;;;0.95;0.30;;;21.90;25.80;;;;;;5018335;28;20039;-53
2021/04/08 06:37:29;;;;;;;1.83;0.45;;;22.00;25.90;;;;;;5047073;28;20100;-47
2021/04/08 06:39:54;;;;;;;0.63;0.28;;;22.00;25.90;;;;;;5044295;28;20365;-50
2021/04/08 06:42:21;;;;;;;0.75;0.45;;;21.90;25.90;;;;;;5044514;28;20025;-49
2021/04/08 06:44:49;;;;;;;1.50;0.50;;;21.90;25.90;;;;;;5042822;28;20463;-50
2021/04/08 06:47:22;;;;;;;2.33;0.32;;;21.90;25.80;;;;;;5021077;28;20041;-54
2021/04/08 06:49:51;;;;;;;2.70;0.50;;;21.90;25.80;;;;;;5018934;28;20026;-49
2021/04/08 06:52:18;;;;;;;1.25;0.40;;;21.90;25.90;;;;;;5022857;28;20025;-50
2021/04/08 06:54:45;;;;;;;2.50;0.90;;;21.90;25.80;;;;;;5025818;28;20021;-50
2021/04/08 06:57:14;;;;;;;1.02;0.50;;;21.90;25.80;;;;;;5024459;28;20037;-53
2021/04/08 06:59:40;;;;;;;1.05;0.43;;;21.90;25.80;;;;;;5024575;28;20048;-48
2021/04/08 07:02:14;;;;;;;1.48;0.40;;;21.90;25.80;;;;;;5025546;28;20551;-50
2021/04/08 07:04:39;;;;;;;2.22;0.65;;;21.90;26.00;;;;;;5017507;28;20030;-54
2021/04/08 07:07:05;;;;;;;1.35;0.50;;;21.90;25.90;;;;;;5026740;28;20350;-54
2021/04/08 07:09:31;;;;;;;1.25;0.43;;;21.90;26.00;;;;;;5027561;28;20436;-49
2021/04/08 07:11:59;;;;;;;1.13;0.30;;;22.00;26.10;;;;;;5025421;28;20022;-49
2021/04/08 07:14:26;;;;;;;1.25;0.60;;;22.00;26.10;;;;;;5026916;28;20508;-54
2021/04/08 07:16:53;;;;;;;0.93;0.47;;;22.10;26.00;;;;;;5021561;28;20342;-48
2021/04/08 07:19:19;;;;;;;1.10;0.40;;;22.20;26.00;;;;;;5024921;28;20074;-50
2021/04/08 07:21:45;;;;;;;0.73;0.45;;;22.30;26.00;;;;;;5022235;28;20017;-53
2021/04/08 07:24:19;;;;;;;1.27;0.45;;;22.30;25.90;;;;;;5025347;28;20048;-51
2021/04/08 07:26:58;;;;;;;1.80;0.60;;;22.50;25.90;;;;;;5023725;28;20087;-49
2021/04/08 07:29:47;;;;;;;2.75;0.47;;;22.60;25.90;;;;;;5022490;28;20033;-50
2021/04/08 07:32:15;;;;;;;1.05;0.40;;;22.70;25.80;;;;;;5024548;28;20373;-54
2021/04/08 07:34:49;;;;;;;0.88;0.45;;;22.80;25.80;;;;;;5021683;28;20035;-51
2021/04/08 07:37:22;;;;;;;0.95;0.50;;;22.90;25.70;;;;;;5004850;28;20394;-51
2021/04/08 07:39:48;;;;;;;1.92;0.70;;;22.90;25.70;;;;;;5024224;28;20030;-52
2021/04/08 07:42:16;;;;;;;1.02;0.50;;;23.00;26.20;;;;;;5023278;28;20426;-51
2021/04/08 07:44:50;;;;;;;1.10;0.40;;;23.10;25.60;;;;;;5019487;28;20431;-55
2021/04/08 07:47:17;;;;;;;;;;;23.20;25.60;;;;;;5039772;28;20053;-50
2021/04/08 07:49:44;;;;;;;1.55;0.60;;;23.30;25.60;;;;;;5046235;28;20264;-58
2021/04/08 07:52:25;;;;;;;0.77;0.38;;;23.30;25.50;;;;;;5040632;28;20467;-55
2021/04/08 07:54:57;;;;;;;1.42;0.60;;;23.40;25.30;;;;;;5036402;28;20528;-55
2021/04/08 07:57:23;;;;;;;1.58;0.47;;;23.50;25.20;;;;;;5046176;28;20020;-56
2021/04/08 07:59:50;;;;;;;0.80;0.40;;;23.60;25.10;;;;;;5023142;28;20033;-53
2021/04/08 08:02:16;;;;;;;1.23;0.47;;;23.70;25.00;;;;;;5043984;28;20353;-52
2021/04/08 08:04:42;;;;;;;2.05;0.50;;;23.80;25.00;;;;;;5040372;28;20029;-54
2021/04/08 08:07:25;;;;;;;0.60;0.40;;;23.80;24.90;;;;;;5024364;28;20038;-50
2021/04/08 08:09:52;;;;;;;0.80;0.50;;;23.80;25.30;;;;;;5048361;28;20486;-46
2021/04/08 08:12:18;;;;;;;0.82;0.40;;;23.90;24.80;;;;;;5028501;28;20463;-47
2021/04/08 08:14:44;;;;;;;1.08;0.52;;;23.90;24.70;;;;;;5042519;28;20077;-47
2021/04/08 08:17:11;;;;;;;1.02;0.50;;;23.90;24.60;;;;;;5042894;28;20112;-50
2021/04/08 08:19:41;;;;;;;1.35;0.47;;;24.00;24.60;;;;;;5043008;28;20108;-52
2021/04/08 08:22:07;;;;;;;1.52;0.40;;;24.00;24.50;;;;;;5048650;28;20174;-49
2021/04/08 08:24:33;;;;;;;0.68;0.40;;;24.00;24.40;;;;;;5046765;28;20140;-52
2021/04/08 08:27:00;;;;;;;1.00;0.50;;;24.10;24.90;;;;;;5043556;28;20120;-52
2021/04/08 08:29:29;;;;;;;2.47;0.50;;;24.10;24.30;;;;;;5046766;28;20037;-54
2021/04/08 08:31:57;;;;;;;0.73;0.32;;;24.10;24.30;;;;;;5046522;28;20041;-50
2021/04/08 08:34:34;;;;;;;0.85;0.43;;;24.10;24.20;;;;;;5024817;28;20033;-50
2021/04/08 08:37:08;;;;;;;0.77;0.40;;;24.10;24.10;;;;;;5040413;28;20135;-50
2021/04/08 08:39:42;;;;;;;0.90;0.47;;;24.10;24.10;;;;;;5027230;28;20021;-48
2021/04/08 08:42:10;;;;;;;0.55;0.30;;;24.10;24.10;;;;;;5043415;28;20060;-48
2021/04/08 08:44:38;;;;;;;1.63;0.80;;;24.10;24.00;;;;;;5038100;28;20486;-51
2021/04/08 08:47:14;;;;;;;0.85;0.40;;;24.10;24.00;;;;;;5042630;28;20448;-52
2021/04/08 08:49:48;;;;;;;0.98;0.47;;;24.10;23.90;;;;;;5044043;28;20044;-52
2021/04/08 08:52:20;;;;;;;0.68;0.47;;;24.00;23.80;;;;;;5041824;28;20113;-48
2021/04/08 08:54:49;;;;;;;1.00;0.50;;;24.00;23.80;;;;;;5044311;28;20041;-47
2021/04/08 08:57:17;;;;;;;0.98;0.43;;;24.00;23.80;;;;;;5040875;28;20029;-50
2021/04/08 08:59:47;;;;;;;0.73;0.43;;;24.00;23.80;;;;;;5043368;28;20044;-52
2021/04/08 09:02:13;;;;;;;0.82;0.50;;;24.00;23.70;;;;;;5039013;28;20423;-49
2021/04/08 09:04:39;;;;;;;0.70;0.45;;;24.00;23.70;;;;;;5044135;28;20108;-51
2021/04/08 09:07:11;;;;;;;0.75;0.40;;;24.00;23.70;;;;;;5039199;28;20063;-55
2021/04/08 09:09:43;;;;;;;1.20;0.50;;;23.90;23.60;;;;;;5042628;28;20032;-52
2021/04/08 09:12:15;;;;;;;0.63;0.30;;;23.90;23.60;;;;;;5041319;28;20040;-56
2021/04/08 09:14:54;;;;;;;0.55;0.40;;;23.90;23.60;;;;;;5041009;28;20033;-52
2021/04/08 09:17:42;;;;;;;0.93;0.40;;;23.90;23.70;;;;;;5038587;28;20045;-57
2021/04/08 09:20:11;;;;;;;0.90;0.40;;;23.90;23.80;;;;;;5020857;28;20044;-57
2021/04/08 09:22:59;;;;;;;0.50;0.30;;;23.90;23.90;;;;;;5034130;28;20445;-56
2021/04/08 09:25:33;;;;;;;0.82;0.47;;;23.90;23.80;;;;;;5048855;28;20025;-55
2021/04/08 09:28:03;;;;;;;0.80;0.45;;;23.90;23.80;;;;;;5042972;28;20048;-52
2021/04/08 09:31:23;;;;;;;1.23;0.40;;;23.90;23.70;;;;;;5040539;28;20436;-54
2021/04/08 09:33:41;;;;;;;2.08;0.55;;;24.00;23.70;;;;;;5029769;28;20057;-56
2021/04/08 09:36:22;;;;;;;1.00;0.40;;;23.90;23.50;;;;;;5043361;28;20413;-54
2021/04/08 09:39:07;;;;;;;1.20;0.60;;;23.90;23.50;;;;;;5038376;28;20105;-51
2021/04/08 09:41:49;;;;;;;0.68;0.40;;;23.90;23.50;;;;;;5041450;28;20025;-55
2021/04/08 09:44:16;;;;;;;0.38;0.30;;;23.90;23.50;;;;;;5043996;28;20116;-56
2021/04/08 09:46:50;;;;;;;5.60;0.30;;;23.90;23.50;;;;;;5043277;28;20052;-54
2021/04/08 09:49:35;;;;;;;0.52;0.30;;;23.90;23.40;;;;;;5044410;28;20029;-53
2021/04/08 09:52:01;;;;;;;0.30;0.20;;;23.90;23.30;;;;;;5037397;28;20029;-51
2021/04/08 09:54:42;;;;;;;0.40;0.30;;;23.90;23.30;;;;;;5040886;28;20100;-49
2021/04/08 09:57:08;;;;;;;0.63;0.40;;;23.90;23.20;;;;;;5043938;28;20052;-54
2021/04/08 09:59:57;;;;;;;2.03;0.50;;;23.90;23.30;;;;;;5040931;28;20021;-54
2021/04/08 10:02:23;;;;;;;1.35;0.63;;;23.90;23.20;;;;;;5027226;28;20033;-53
2021/04/08 10:05:12;;;;;;;1.00;0.35;;;23.90;23.20;;;;;;5043014;28;20126;-53
2021/04/08 10:07:52;;;;;;;0.60;0.22;;;23.90;23.10;;;;;;5027170;28;20061;-53
2021/04/08 10:10:20;;;;;;;0.75;0.30;;;23.90;23.10;;;;;;5033664;28;20179;-56
2021/04/08 10:12:46;;;;;;;0.60;0.30;;;23.80;23.10;;;;;;5044279;28;20032;-59
2021/04/08 10:15:16;;;;;;;0.35;0.22;;;23.80;23.00;;;;;;5045838;28;20440;-55
2021/04/08 10:17:42;;;;;;;1.10;0.50;;;23.80;22.90;;;;;;5041082;28;20423;-54
2021/04/08 10:20:09;;;;;;;0.82;0.50;;;23.80;22.90;;;;;;5044727;28;20056;-52
2021/04/08 10:22:43;;;;;;;1.40;0.50;;;23.80;22.90;;;;;;5025411;28;20356;-52
2021/04/08 10:25:10;;;;;;;0.45;0.25;;;23.80;22.80;;;;;;5042557;28;20037;-52
2021/04/08 10:27:36;;;;;;;0.95;0.50;;;23.80;22.80;;;;;;5042699;28;20424;-52
2021/04/08 10:30:15;;;;;;;1.30;0.50;;;23.80;22.70;;;;;;5039756;28;20056;-54
2021/04/08 10:32:44;;;;;;;0.70;0.47;;;23.80;22.70;;;;;;5039705;28;20029;-53
2021/04/08 10:35:22;;;;;;;0.90;0.30;;;23.80;22.70;;;;;;5041348;28;20040;-58
2021/04/08 10:37:57;;;;;;;1.25;0.40;;;23.70;22.60;;;;;;5025421;28;20040;-53
2021/04/08 10:40:23;;;;;;;1.30;0.68;;;23.80;22.60;;;;;;5031005;28;20040;-54
2021/04/08 10:42:49;;;;;;;0.38;0.30;;;23.80;22.60;;;;;;5048128;28;20340;-52
2021/04/08 10:45:15;;;;;;;0.55;0.40;;;23.70;22.50;;;;;;5036292;28;20083;-52
2021/04/08 10:47:41;;;;;;;2.00;0.50;;;23.80;22.50;;;;;;5017655;28;20041;-53
2021/04/08 10:50:07;;;;;;;0.73;0.35;;;23.70;22.50;;;;;;5047933;28;20037;-52
2021/04/08 10:52:38;;;;;;;0.60;0.30;;;23.70;22.40;;;;;;5042751;28;20047;-52
2021/04/08 10:55:05;;;;;;;1.02;0.40;;;23.80;22.50;;;;;;5040750;28;20025;-54
2021/04/08 10:57:32;;;;;;;0.80;0.38;;;23.80;22.60;;;;;;5032730;28;20443;-54
2021/04/08 10:59:59;;;;;;;0.70;0.30;;;23.70;22.70;;;;;;5041293;28;20080;-51
2021/04/08 11:02:41;;;;;;;1.05;0.43;;;23.80;22.80;;;;;;5041362;28;20066;-50
2021/04/08 11:05:11;;;;;;;0.68;0.40;;;23.80;23.40;;;;;;5039861;28;20124;-48
2021/04/08 11:07:38;;;;;;;1.10;0.40;;;23.80;22.90;;;;;;5039847;28;20099;-52
2021/04/08 11:10:19;;;;;;;0.70;0.38;;;23.90;23.00;;;;;;5051189;28;20100;-52
2021/04/08 11:12:49;;;;;;;1.63;0.50;;;23.90;23.00;;;;;;5052884;28;20106;-53
2021/04/08 11:15:16;;;;;;;0.40;0.20;;;23.90;23.10;;;;;;5045330;28;20034;-50
2021/04/08 11:17:45;;;;;;;0.95;0.43;;;23.90;23.10;;;;;;5025023;28;20047;-53
2021/04/08 11:20:16;;;;;;;0.63;0.38;;;23.90;23.10;;;;;;5044960;28;20033;-51
2021/04/08 11:22:45;;;;;;;0.40;0.35;;;23.90;23.10;;;;;;5023727;28;20040;-54
2021/04/08 11:25:15;;;;;;;1.48;0.32;;;23.90;23.10;;;;;;5044305;28;20035;-53
2021/04/08 11:27:45;;;;;;;0.95;0.43;;;24.00;23.10;;;;;;5049357;28;20104;-57
2021/04/08 11:30:30;;;;;;;0.45;0.22;;;24.00;23.20;;;;;;5045957;28;20043;-52
2021/04/08 11:32:57;;;;;;;0.70;0.40;;;24.00;23.10;;;;;;5028428;28;20033;-53
2021/04/08 11:35:24;;;;;;;1.75;0.40;;;24.00;23.10;;;;;;5013912;28;20352;-54
2021/04/08 11:38:02;;;;;;;0.50;0.40;;;24.00;23.10;;;;;;5037094;28;20341;-55
2021/04/08 11:40:28;;;;;;;0.82;0.50;;;24.00;23.10;;;;;;5039152;28;20033;-55
2021/04/08 11:42:53;;;;;;;1.30;0.52;;;24.00;23.10;;;;;;5028149;28;20449;-53
2021/04/08 11:45:23;;;;;;;1.20;0.40;;;24.00;23.50;;;;;;5048235;28;20029;-56
2021/04/08 11:48:02;;;;;;;1.58;0.40;;;24.00;22.90;;;;;;5043340;28;20052;-52
2021/04/08 11:50:32;;;;;;;0.65;0.47;;;24.00;22.70;;;;;;5046760;28;20033;-58
2021/04/08 11:53:10;;;;;;;0.93;0.43;;;24.00;22.70;;;;;;5048287;28;20022;-56
2021/04/08 11:55:40;;;;;;;1.50;0.55;;;24.00;23.10;;;;;;5046230;28;20364;-57
2021/04/08 11:58:08;;;;;;;0.40;0.40;;;24.00;22.60;;;;;;5042344;28;20519;-58
2021/04/08 12:00:39;;;;;;;0.88;0.40;;;23.90;22.60;;;;;;5046638;28;20024;-58
2021/04/08 12:03:27;;;;;;;1.13;0.57;;;23.90;22.60;;;;;;5042329;28;20108;-59
2021/04/08 12:06:10;;;;;;;0.50;0.50;;;23.90;22.50;;;;;;5034406;28;20025;-56
2021/04/08 12:08:41;;;;;;;0.47;0.30;;;23.90;22.60;;;;;;5045662;28;20031;-58
2021/04/08 12:11:19;;;;;;;0.63;0.40;;;23.80;22.50;;;;;;5051589;28;20087;-59
2021/04/08 12:14:00;;;;;;;2.05;0.60;;;23.80;22.50;;;;;;5023263;28;20483;-52
2021/04/08 12:16:28;;;;;;;1.13;0.40;;;23.70;22.40;;;;;;5017711;28;20117;-52
2021/04/08 12:19:00;;;;;;;1.15;0.50;;;23.80;22.50;;;;;;5036164;28;20546;-52
2021/04/08 12:21:42;;;;;;;1.13;0.50;;;23.80;22.50;;;;;;5035573;28;20075;-61
2021/04/08 12:24:09;;;;;;;1.40;0.50;;;23.80;22.50;;;;;;5038865;28;20087;-59
2021/04/08 12:26:39;;;;;;;2.03;0.65;;;23.70;22.50;;;;;;5041597;28;20090;-56
2021/04/08 12:29:06;;;;;;;1.50;0.70;;;23.70;22.40;;;;;;5035323;28;20099;-55
2021/04/08 12:31:34;;;;;;;1.80;0.80;;;23.60;22.40;;;;;;5021392;28;20033;-55
2021/04/08 12:34:02;;;;;;;1.40;0.68;;;23.70;22.40;;;;;;5048757;28;20032;-57
2021/04/08 12:36:30;;;;;;;1.30;0.60;;;23.70;22.40;;;;;;5017603;28;20025;-55
2021/04/08 12:38:57;;;;;;;1.15;0.50;;;23.60;22.40;;;;;;5046991;28;20090;-57
2021/04/08 12:41:22;;;;;;;1.45;0.47;;;23.60;22.40;;;;;;5041965;28;20030;-52
2021/04/08 12:43:48;;;;;;;3.15;0.88;;;23.60;22.40;;;;;;5036617;28;20033;-52
2021/04/08 12:46:14;;;;;;;1.52;0.63;;;23.60;22.40;;;;;;5040771;28;20522;-52
2021/04/08 12:48:39;;;;;;;1.10;0.70;;;23.60;22.40;;;;;;5044946;28;20484;-50
2021/04/08 12:51:06;;;;;;;0.80;0.40;;;23.60;22.40;;;;;;5044402;28;20063;-48
2021/04/08 12:53:31;;;;;;;1.02;0.60;;;23.50;22.40;;;;;;5036907;28;20029;-54
2021/04/08 12:55:57;;;;;;;1.23;0.50;;;23.60;22.40;;;;;;5021973;28;20044;-55
2021/04/08 12:58:24;;;;;;;1.77;0.60;;;23.60;22.40;;;;;;5045653;28;20033;-52
2021/04/08 13:00:50;;;;;;;1.02;0.73;;;23.50;22.40;;;;;;5040916;28;20444;-52